createdAt,value
2018-09-28T00:00:05.462Z,8.12
2018-09-28T00:01:13.541Z,8.12
2018-09-28T00:02:21.580Z,8.16
2018-09-28T00:03:29.649Z,8.15
2018-09-28T00:04:37.728Z,8.08
2018-09-28T00:05:45.777Z,8.08
2018-09-28T00:06:53.843Z,8.10
2018-09-28T00:08:01.907Z,8.11
2018-09-28T00:09:09.968Z,8.07
2018-09-28T00:10:18.031Z,8.02
2018-09-28T00:11:26.099Z,8.07
2018-09-28T00:12:34.139Z,8.15
2018-09-28T00:13:42.196Z,8.05
2018-09-28T00:14:50.281Z,8.11
2018-09-28T00:15:58.343Z,8.08
2018-09-28T00:17:06.431Z,8.08
2018-09-28T00:18:14.445Z,8.10
2018-09-28T00:19:22.525Z,7.97
2018-09-28T00:20:30.573Z,8.00
2018-09-28T00:21:38.646Z,7.97
2018-09-28T00:22:46.697Z,7.97
2018-09-28T00:23:54.775Z,7.92
2018-09-28T00:25:02.818Z,7.89
2018-09-28T00:26:10.874Z,7.86
2018-09-28T00:27:18.957Z,7.85
2018-09-28T00:28:26.993Z,7.75
2018-09-28T00:29:35.056Z,7.82
2018-09-28T00:30:43.104Z,7.80
2018-09-28T00:31:51.189Z,7.77
2018-09-28T00:32:59.262Z,7.82
2018-09-28T00:34:07.329Z,7.80
2018-09-28T00:35:15.389Z,7.79
2018-09-28T00:36:23.479Z,7.74
2018-09-28T00:37:31.504Z,7.80
2018-09-28T00:38:39.578Z,7.77
2018-09-28T00:39:47.641Z,7.80
2018-09-28T00:40:55.708Z,7.80
2018-09-28T00:42:03.757Z,7.80
2018-09-28T00:43:11.805Z,7.80
2018-09-28T00:44:19.872Z,7.82
2018-09-28T00:45:27.937Z,7.75
2018-09-28T00:46:36.010Z,7.79
2018-09-28T00:47:44.069Z,7.75
2018-09-28T00:48:52.135Z,7.77
2018-09-28T00:50:00.224Z,7.79
2018-09-28T00:51:08.263Z,7.85
2018-09-28T00:52:16.311Z,7.83
2018-09-28T00:53:24.377Z,7.83
2018-09-28T00:54:32.430Z,7.79
2018-09-28T00:55:40.495Z,7.85
2018-09-28T00:56:48.563Z,7.82
2018-09-28T00:57:56.629Z,7.80
2018-09-28T00:59:04.678Z,7.71
2018-09-28T01:00:12.742Z,7.74
2018-09-28T01:01:20.818Z,7.74
2018-09-28T01:02:28.888Z,7.67
2018-09-28T01:03:36.943Z,7.71
2018-09-28T01:04:44.985Z,7.74
2018-09-28T01:05:53.076Z,7.72
2018-09-28T01:07:01.117Z,7.74
2018-09-28T01:08:09.168Z,7.74
2018-09-28T01:09:17.246Z,7.71
2018-09-28T01:10:25.298Z,7.77
2018-09-28T01:11:33.359Z,7.74
2018-09-28T01:12:41.439Z,7.67
2018-09-28T01:13:49.526Z,7.77
2018-09-28T01:14:57.565Z,7.72
2018-09-28T01:16:05.624Z,7.72
2018-09-28T01:17:13.659Z,7.71
2018-09-28T01:18:21.745Z,7.75
2018-09-28T01:19:29.810Z,7.75
2018-09-28T01:20:37.879Z,7.68
2018-09-28T01:21:45.923Z,7.75
2018-09-28T01:22:53.981Z,7.75
2018-09-28T01:24:02.054Z,7.71
2018-09-28T01:25:10.124Z,7.74
2018-09-28T01:26:18.170Z,7.71
2018-09-28T01:27:26.241Z,7.71
2018-09-28T01:28:34.305Z,7.71
2018-09-28T01:29:42.351Z,7.71
2018-09-28T01:30:50.423Z,7.71
2018-09-28T01:31:58.505Z,7.64
2018-09-28T01:33:06.548Z,7.71
2018-09-28T01:34:14.624Z,7.60
2018-09-28T01:35:22.690Z,7.72
2018-09-28T01:36:30.737Z,7.75
2018-09-28T01:37:38.795Z,7.71
2018-09-28T01:38:46.853Z,7.58
2018-09-28T01:39:54.923Z,7.71
2018-09-28T01:41:02.978Z,7.71
2018-09-28T01:42:11.054Z,7.60
2018-09-28T01:43:19.093Z,7.69
2018-09-28T01:44:27.162Z,7.61
2018-09-28T01:45:35.228Z,7.60
2018-09-28T01:46:43.283Z,7.63
2018-09-28T01:47:51.351Z,7.63
2018-09-28T01:48:59.428Z,7.61
2018-09-28T01:50:07.472Z,7.67
2018-09-28T01:51:15.544Z,7.53
2018-09-28T01:52:23.584Z,7.64
2018-09-28T01:53:31.688Z,7.52
2018-09-28T01:54:39.741Z,7.57
2018-09-28T01:55:47.794Z,7.49
2018-09-28T01:56:55.850Z,7.50
2018-09-28T01:58:03.921Z,7.50
2018-09-28T01:59:11.967Z,7.57
2018-09-28T02:00:20.033Z,7.49
2018-09-28T02:01:28.120Z,7.50
2018-09-28T02:02:36.160Z,7.48
2018-09-28T02:03:44.221Z,7.57
2018-09-28T02:04:52.296Z,7.53
2018-09-28T02:06:00.398Z,7.49
2018-09-28T02:07:08.404Z,7.46
2018-09-28T02:08:16.463Z,7.52
2018-09-28T02:09:24.527Z,7.42
2018-09-28T02:10:32.568Z,7.46
2018-09-28T02:11:40.662Z,7.43
2018-09-28T02:12:48.719Z,7.48
2018-09-28T02:13:56.795Z,7.48
2018-09-28T02:15:04.845Z,7.49
2018-09-28T02:16:12.886Z,7.45
2018-09-28T02:17:20.973Z,7.53
2018-09-28T02:18:29.017Z,7.49
2018-09-28T02:19:37.071Z,7.46
2018-09-28T02:20:45.164Z,7.43
2018-09-28T02:21:53.210Z,7.46
2018-09-28T02:23:01.279Z,7.52
2018-09-28T02:24:09.335Z,7.49
2018-09-28T02:25:17.402Z,7.46
2018-09-28T02:26:25.461Z,7.43
2018-09-28T02:27:33.514Z,7.43
2018-09-28T02:28:41.579Z,7.49
2018-09-28T02:29:49.651Z,7.50
2018-09-28T02:30:57.710Z,7.46
2018-09-28T02:32:05.856Z,7.49
2018-09-28T02:33:13.828Z,7.50
2018-09-28T02:34:21.902Z,7.53
2018-09-28T02:35:29.955Z,7.55
2018-09-28T02:36:38.016Z,7.55
2018-09-28T02:37:46.091Z,7.55
2018-09-28T02:38:54.136Z,7.49
2018-09-28T02:40:02.192Z,7.48
2018-09-28T02:41:10.263Z,7.55
2018-09-28T02:42:18.323Z,7.52
2018-09-28T02:43:26.403Z,7.55
2018-09-28T02:44:34.453Z,7.49
2018-09-28T02:45:42.526Z,7.52
2018-09-28T02:46:50.573Z,7.53
2018-09-28T02:47:58.631Z,7.49
2018-09-28T02:49:06.699Z,7.57
2018-09-28T02:50:14.775Z,7.52
2018-09-28T02:51:22.828Z,7.46
2018-09-28T02:52:30.882Z,7.46
2018-09-28T02:53:38.933Z,7.49
2018-09-28T02:54:47.005Z,7.52
2018-09-28T02:55:55.084Z,7.49
2018-09-28T02:57:03.192Z,7.60
2018-09-28T02:58:11.208Z,7.50
2018-09-28T02:59:19.272Z,7.49
2018-09-28T03:00:27.329Z,7.55
2018-09-28T03:01:35.377Z,7.53
2018-09-28T03:02:43.435Z,7.55
2018-09-28T03:03:51.514Z,7.55
2018-09-28T03:04:59.560Z,7.55
2018-09-28T03:06:07.679Z,7.60
2018-09-28T03:07:15.697Z,7.63
2018-09-28T03:08:23.763Z,7.52
2018-09-28T03:09:31.796Z,7.57
2018-09-28T03:10:39.864Z,7.55
2018-09-28T03:11:47.942Z,7.52
2018-09-28T03:12:55.996Z,7.49
2018-09-28T03:14:04.059Z,7.49
2018-09-28T03:15:12.175Z,7.48
2018-09-28T03:16:20.208Z,7.55
2018-09-28T03:17:28.273Z,7.50
2018-09-28T03:18:36.309Z,7.55
2018-09-28T03:19:44.357Z,7.49
2018-09-28T03:20:52.439Z,7.53
2018-09-28T03:22:00.505Z,7.60
2018-09-28T03:23:08.545Z,7.53
2018-09-28T03:24:16.623Z,7.61
2018-09-28T03:25:24.654Z,7.68
2018-09-28T03:26:32.765Z,7.60
2018-09-28T03:27:40.795Z,7.53
2018-09-28T03:28:48.862Z,7.55
2018-09-28T03:29:56.923Z,7.63
2018-09-28T03:31:04.988Z,7.57
2018-09-28T03:32:13.063Z,7.50
2018-09-28T03:33:21.136Z,7.49
2018-09-28T03:34:29.190Z,7.50
2018-09-28T03:35:37.232Z,7.50
2018-09-28T03:36:45.346Z,7.52
2018-09-28T03:37:53.330Z,7.48
2018-09-28T03:39:01.427Z,7.48
2018-09-28T03:40:09.487Z,7.49
2018-09-28T03:41:17.535Z,7.49
2018-09-28T03:42:25.620Z,7.39
2018-09-28T03:43:33.669Z,7.50
2018-09-28T03:44:41.733Z,7.43
2018-09-28T03:45:50.425Z,7.34
2018-09-28T03:46:58.048Z,7.37
2018-09-28T03:48:05.917Z,7.35
2018-09-28T03:49:13.969Z,7.40
2018-09-28T03:50:22.018Z,7.40
2018-09-28T03:51:30.099Z,7.42
2018-09-28T03:52:38.147Z,7.42
2018-09-28T03:53:46.230Z,7.39
2018-09-28T03:54:54.268Z,7.39
2018-09-28T03:56:02.353Z,7.37
2018-09-28T03:57:10.397Z,7.40
2018-09-28T03:58:18.452Z,7.40
2018-09-28T03:59:26.521Z,7.43
2018-09-28T04:00:34.578Z,7.40
2018-09-28T04:01:42.616Z,7.37
2018-09-28T04:02:50.733Z,7.42
2018-09-28T04:03:58.781Z,7.40
2018-09-28T04:05:06.838Z,7.35
2018-09-28T04:06:14.898Z,7.40
2018-09-28T04:07:22.945Z,7.37
2018-09-28T04:08:31.009Z,7.37
2018-09-28T04:09:40.382Z,7.40
2018-09-28T04:10:47.309Z,7.39
2018-09-28T04:11:55.204Z,7.42
2018-09-28T04:13:03.232Z,7.32
2018-09-28T04:14:11.296Z,7.42
2018-09-28T04:15:19.413Z,7.45
2018-09-28T04:16:27.433Z,7.39
2018-09-28T04:17:35.486Z,7.43
2018-09-28T04:18:43.569Z,7.42
2018-09-28T04:19:51.638Z,7.45
2018-09-28T04:20:59.697Z,7.40
2018-09-28T04:22:07.845Z,7.43
2018-09-28T04:23:15.809Z,7.34
2018-09-28T04:24:24.223Z,7.32
2018-09-28T04:25:31.920Z,7.35
2018-09-28T04:26:39.997Z,7.39
2018-09-28T04:27:48.045Z,7.42
2018-09-28T04:28:56.532Z,7.37
2018-09-28T04:30:04.179Z,7.35
2018-09-28T04:31:12.244Z,7.34
2018-09-28T04:32:20.314Z,7.42
2018-09-28T04:33:28.398Z,7.39
2018-09-28T04:34:36.410Z,7.43
2018-09-28T04:35:44.545Z,7.35
2018-09-28T04:36:52.528Z,7.34
2018-09-28T04:38:00.592Z,7.40
2018-09-28T04:39:08.663Z,7.42
2018-09-28T04:40:16.732Z,7.35
2018-09-28T04:41:24.794Z,7.39
2018-09-28T04:42:32.862Z,7.42
2018-09-28T04:43:40.909Z,7.43
2018-09-28T04:44:48.998Z,7.42
2018-09-28T04:45:57.035Z,7.39
2018-09-28T04:47:05.076Z,7.34
2018-09-28T04:48:13.146Z,7.39
2018-09-28T04:49:21.194Z,7.39
2018-09-28T04:50:29.286Z,7.35
2018-09-28T04:51:37.366Z,7.39
2018-09-28T04:52:45.377Z,7.37
2018-09-28T04:53:53.466Z,7.39
2018-09-28T04:55:01.495Z,7.39
2018-09-28T04:56:09.593Z,7.35
2018-09-28T04:57:17.970Z,7.37
2018-09-28T04:58:25.689Z,7.37
2018-09-28T04:59:33.742Z,7.39
2018-09-28T05:00:41.828Z,7.35
2018-09-28T05:01:50.253Z,7.42
2018-09-28T05:02:57.950Z,7.37
2018-09-28T05:04:06.019Z,7.40
2018-09-28T05:05:14.065Z,7.37
2018-09-28T05:06:22.120Z,7.37
2018-09-28T05:07:30.186Z,7.35
2018-09-28T05:08:38.236Z,7.37
2018-09-28T05:09:46.306Z,7.40
2018-09-28T05:10:54.382Z,7.37
2018-09-28T05:12:02.431Z,7.39
2018-09-28T05:13:10.553Z,7.37
2018-09-28T05:14:18.565Z,7.42
2018-09-28T05:15:26.629Z,7.42
2018-09-28T05:16:34.855Z,7.35
2018-09-28T05:17:42.762Z,7.32
2018-09-28T05:18:50.829Z,7.40
2018-09-28T05:19:58.897Z,7.39
2018-09-28T05:21:06.966Z,7.37
2018-09-28T05:22:15.001Z,7.35
2018-09-28T05:23:23.059Z,7.35
2018-09-28T05:24:31.132Z,7.37
2018-09-28T05:25:39.206Z,7.34
2018-09-28T05:26:47.234Z,7.25
2018-09-28T05:27:55.295Z,7.30
2018-09-28T05:29:03.352Z,7.27
2018-09-28T05:30:11.415Z,7.31
2018-09-28T05:31:19.591Z,7.34
2018-09-28T05:32:27.792Z,7.28
2018-09-28T05:33:35.583Z,7.27
2018-09-28T05:34:43.653Z,7.31
2018-09-28T05:35:51.730Z,7.28
2018-09-28T05:36:59.802Z,7.24
2018-09-28T05:38:07.849Z,7.27
2018-09-28T05:39:15.930Z,7.28
2018-09-28T05:40:23.972Z,7.28
2018-09-28T05:41:32.037Z,7.23
2018-09-28T05:42:40.089Z,7.27
2018-09-28T05:43:48.178Z,7.25
2018-09-28T05:44:56.218Z,7.28
2018-09-28T05:46:04.278Z,7.25
2018-09-28T05:47:12.347Z,7.24
2018-09-28T05:48:20.390Z,7.30
2018-09-28T05:49:28.471Z,7.23
2018-09-28T05:50:36.522Z,7.34
2018-09-28T05:51:44.599Z,7.39
2018-09-28T05:52:52.632Z,7.40
2018-09-28T05:54:00.702Z,7.40
2018-09-28T05:55:08.772Z,7.39
2018-09-28T05:56:16.830Z,7.42
2018-09-28T05:57:24.880Z,7.32
2018-09-28T05:58:32.976Z,7.48
2018-09-28T05:59:41.024Z,7.46
2018-09-28T06:00:49.083Z,7.57
2018-09-28T06:01:57.152Z,7.53
2018-09-28T06:03:05.217Z,7.53
2018-09-28T06:04:13.267Z,7.49
2018-09-28T06:05:21.392Z,7.61
2018-09-28T06:06:29.373Z,7.64
2018-09-28T06:07:37.444Z,7.58
2018-09-28T06:08:45.507Z,7.74
2018-09-28T06:09:53.562Z,7.77
2018-09-28T06:11:01.651Z,7.82
2018-09-28T06:12:09.712Z,7.80
2018-09-28T06:13:17.767Z,7.89
2018-09-28T06:14:25.844Z,8.00
2018-09-28T06:15:33.881Z,7.95
2018-09-28T06:16:41.958Z,8.01
2018-09-28T06:17:50.037Z,8.08
2018-09-28T06:18:58.156Z,8.12
2018-09-28T06:20:06.132Z,8.29
2018-09-28T06:21:14.222Z,8.34
2018-09-28T06:22:22.252Z,8.34
2018-09-28T06:23:30.329Z,8.34
2018-09-28T06:24:38.375Z,8.41
2018-09-28T06:25:46.441Z,8.41
2018-09-28T06:26:54.498Z,8.59
2018-09-28T06:28:02.556Z,8.56
2018-09-28T06:29:10.651Z,8.66
2018-09-28T06:30:18.737Z,8.77
2018-09-28T06:31:26.765Z,8.81
2018-09-28T06:32:34.831Z,8.94
2018-09-28T06:33:42.856Z,9.14
2018-09-28T06:34:50.956Z,9.14
2018-09-28T06:35:59.055Z,9.17
2018-09-28T06:37:07.066Z,9.36
2018-09-28T06:38:15.135Z,9.40
2018-09-28T06:39:23.208Z,9.47
2018-09-28T06:40:31.261Z,9.58
2018-09-28T06:41:39.328Z,9.66
2018-09-28T06:42:47.396Z,9.76
2018-09-28T06:43:55.444Z,9.79
2018-09-28T06:45:03.508Z,9.87
2018-09-28T06:46:11.596Z,9.93
2018-09-28T06:47:19.651Z,9.97
2018-09-28T06:48:27.723Z,10.01
2018-09-28T06:49:35.774Z,10.09
2018-09-28T06:50:43.831Z,10.20
2018-09-28T06:51:51.897Z,10.17
2018-09-28T06:52:59.948Z,10.33
2018-09-28T06:54:08.079Z,10.32
2018-09-28T06:55:16.092Z,10.42
2018-09-28T06:56:24.148Z,10.55
2018-09-28T06:57:32.214Z,10.53
2018-09-28T06:58:40.267Z,10.67
2018-09-28T06:59:48.374Z,10.74
2018-09-28T07:00:56.404Z,10.91
2018-09-28T07:02:04.488Z,11.04
2018-09-28T07:03:12.524Z,11.32
2018-09-28T07:04:20.590Z,11.42
2018-09-28T07:05:28.654Z,11.55
2018-09-28T07:06:36.745Z,11.82
2018-09-28T07:07:44.779Z,11.98
2018-09-28T07:08:52.827Z,12.34
2018-09-28T07:10:00.943Z,12.59
2018-09-28T07:11:08.985Z,13.03
2018-09-28T07:12:17.112Z,13.46
2018-09-28T07:13:25.125Z,14.07
2018-09-28T07:14:33.160Z,14.55
2018-09-28T07:15:41.246Z,14.91
2018-09-28T07:16:50.358Z,15.29
2018-09-28T07:17:58.458Z,15.69
2018-09-28T07:19:06.451Z,16.11
2018-09-28T07:20:14.565Z,16.31
2018-09-28T07:21:22.606Z,16.73
2018-09-28T07:22:32.081Z,16.93
2018-09-28T07:23:38.780Z,17.26
2018-09-28T07:24:46.903Z,17.43
2018-09-28T07:25:54.848Z,17.66
2018-09-28T07:27:02.916Z,17.90
2018-09-28T07:28:10.995Z,18.05
2018-09-28T07:29:19.098Z,18.21
2018-09-28T07:30:28.759Z,18.50
2018-09-28T07:31:36.810Z,18.69
2018-09-28T07:32:44.901Z,18.78
2018-09-28T07:33:52.964Z,18.94
2018-09-28T07:35:01.052Z,19.06
2018-09-28T07:36:09.303Z,19.28
2018-09-28T07:37:17.354Z,19.44
2018-09-28T07:38:25.244Z,19.55
2018-09-28T07:39:33.300Z,19.73
2018-09-28T07:40:41.595Z,19.80
2018-09-28T07:41:49.698Z,19.92
2018-09-28T07:42:57.752Z,20.01
2018-09-28T07:44:05.795Z,20.05
2018-09-28T07:45:13.902Z,20.21
2018-09-28T07:46:21.956Z,20.06
2018-09-28T07:47:30.107Z,19.99
2018-09-28T07:48:38.089Z,20.01
2018-09-28T07:49:46.188Z,19.87
2018-09-28T07:50:54.229Z,19.76
2018-09-28T07:52:02.290Z,19.76
2018-09-28T07:53:10.380Z,19.77
2018-09-28T07:54:18.442Z,19.73
2018-09-28T07:55:26.533Z,19.83
2018-09-28T07:56:34.589Z,19.88
2018-09-28T07:57:42.669Z,19.87
2018-09-28T07:58:50.749Z,19.91
2018-09-28T07:59:58.813Z,19.86
2018-09-28T08:01:06.882Z,19.87
2018-09-28T08:02:14.966Z,19.71
2018-09-28T08:03:23.019Z,19.58
2018-09-28T08:04:31.106Z,19.51
2018-09-28T08:05:39.163Z,19.40
2018-09-28T08:06:47.240Z,19.23
2018-09-28T08:07:55.309Z,19.13
2018-09-28T08:09:03.383Z,19.02
2018-09-28T08:10:11.455Z,18.84
2018-09-28T08:11:19.521Z,18.76
2018-09-28T08:12:27.584Z,18.70
2018-09-28T08:13:35.681Z,18.69
2018-09-28T08:14:43.735Z,18.48
2018-09-28T08:15:51.791Z,18.42
2018-09-28T08:16:59.864Z,18.32
2018-09-28T08:18:07.954Z,18.20
2018-09-28T08:19:16.008Z,18.20
2018-09-28T08:20:24.081Z,18.26
2018-09-28T08:21:32.167Z,18.11
2018-09-28T08:22:40.224Z,17.97
2018-09-28T08:23:48.298Z,18.00
2018-09-28T08:24:56.363Z,17.90
2018-09-28T08:26:04.436Z,17.81
2018-09-28T08:27:12.522Z,17.71
2018-09-28T08:28:20.601Z,17.71
2018-09-28T08:29:28.660Z,17.66
2018-09-28T08:30:36.784Z,17.63
2018-09-28T08:31:44.795Z,17.62
2018-09-28T08:32:52.849Z,17.52
2018-09-28T08:34:00.931Z,17.52
2018-09-28T08:35:08.981Z,17.49
2018-09-28T08:36:17.101Z,17.38
2018-09-28T08:37:25.142Z,17.43
2018-09-28T08:38:33.196Z,17.38
2018-09-28T08:39:41.282Z,17.37
2018-09-28T08:40:49.346Z,17.37
2018-09-28T08:41:57.567Z,17.41
2018-09-28T08:43:05.482Z,17.36
2018-09-28T08:44:13.540Z,17.48
2018-09-28T08:45:21.657Z,17.30
2018-09-28T08:46:29.690Z,17.22
2018-09-28T08:47:37.765Z,17.36
2018-09-28T08:48:45.849Z,17.30
2018-09-28T08:49:53.883Z,17.23
2018-09-28T08:51:01.967Z,17.22
2018-09-28T08:52:10.047Z,17.23
2018-09-28T08:53:18.114Z,17.37
2018-09-28T08:54:26.171Z,17.22
2018-09-28T08:55:34.243Z,17.33
2018-09-28T08:56:42.355Z,17.34
2018-09-28T08:57:50.379Z,17.41
2018-09-28T08:58:58.446Z,17.44
2018-09-28T09:00:06.511Z,17.40
2018-09-28T09:01:14.588Z,17.43
2018-09-28T09:02:22.634Z,17.44
2018-09-28T09:03:30.717Z,17.41
2018-09-28T09:04:38.775Z,17.41
2018-09-28T09:05:46.853Z,17.41
2018-09-28T09:06:54.946Z,17.44
2018-09-28T09:08:02.981Z,17.51
2018-09-28T09:09:11.068Z,17.49
2018-09-28T09:10:19.139Z,17.59
2018-09-28T09:11:27.279Z,17.56
2018-09-28T09:12:35.282Z,17.58
2018-09-28T09:13:43.342Z,17.63
2018-09-28T09:14:51.409Z,17.63
2018-09-28T09:15:59.524Z,17.66
2018-09-28T09:17:07.566Z,17.72
2018-09-28T09:18:15.706Z,17.74
2018-09-28T09:19:23.642Z,17.74
2018-09-28T09:20:31.756Z,17.70
2018-09-28T09:21:39.815Z,17.77
2018-09-28T09:22:47.879Z,17.93
2018-09-28T09:23:56.030Z,17.95
2018-09-28T09:25:04.023Z,17.92
2018-09-28T09:26:12.109Z,17.87
2018-09-28T09:27:20.156Z,17.87
2018-09-28T09:28:28.240Z,18.05
2018-09-28T09:29:36.325Z,18.00
2018-09-28T09:30:44.361Z,18.05
2018-09-28T09:31:52.437Z,18.03
2018-09-28T09:33:00.496Z,18.12
2018-09-28T09:34:08.582Z,18.14
2018-09-28T09:35:16.646Z,18.11
2018-09-28T09:36:24.736Z,18.20
2018-09-28T09:37:32.806Z,18.26
2018-09-28T09:38:40.856Z,18.36
2018-09-28T09:39:48.911Z,18.37
2018-09-28T09:40:56.984Z,18.42
2018-09-28T09:42:05.049Z,18.50
2018-09-28T09:43:13.114Z,18.57
2018-09-28T09:44:21.189Z,18.60
2018-09-28T09:45:29.273Z,18.72
2018-09-28T09:46:37.321Z,18.70
2018-09-28T09:47:45.389Z,18.72
2018-09-28T09:48:53.479Z,18.81
2018-09-28T09:50:01.541Z,18.80
2018-09-28T09:51:09.609Z,18.81
2018-09-28T09:52:17.679Z,18.81
2018-09-28T09:53:25.744Z,18.87
2018-09-28T09:54:33.804Z,19.00
2018-09-28T09:55:41.889Z,19.06
2018-09-28T09:56:49.942Z,19.16
2018-09-28T09:57:58.040Z,19.21
2018-09-28T09:59:06.086Z,19.14
2018-09-28T10:00:14.155Z,19.21
2018-09-28T10:01:22.235Z,19.22
2018-09-28T10:02:30.308Z,19.29
2018-09-28T10:03:38.367Z,19.37
2018-09-28T10:04:46.439Z,19.44
2018-09-28T10:05:54.525Z,19.48
2018-09-28T10:07:02.584Z,19.41
2018-09-28T10:08:10.652Z,19.55
2018-09-28T10:09:18.710Z,19.50
2018-09-28T10:10:26.805Z,19.58
2018-09-28T10:11:34.869Z,19.65
2018-09-28T10:12:42.961Z,19.66
2018-09-28T10:13:51.000Z,19.66
2018-09-28T10:14:59.072Z,19.73
2018-09-28T10:16:07.126Z,19.80
2018-09-28T10:17:15.199Z,19.84
2018-09-28T10:18:23.323Z,19.91
2018-09-28T10:19:31.357Z,19.92
2018-09-28T10:20:39.451Z,19.96
2018-09-28T10:21:47.496Z,20.10
2018-09-28T10:22:55.563Z,20.10
2018-09-28T10:24:03.627Z,20.21
2018-09-28T10:25:11.722Z,20.17
2018-09-28T10:26:19.756Z,20.21
2018-09-28T10:27:27.997Z,20.32
2018-09-28T10:28:36.015Z,20.29
2018-09-28T10:29:43.959Z,20.38
2018-09-28T10:30:52.034Z,20.57
2018-09-28T10:32:00.103Z,20.64
2018-09-28T10:33:08.180Z,20.76
2018-09-28T10:34:16.297Z,20.82
2018-09-28T10:35:24.324Z,20.88
2018-09-28T10:36:32.379Z,20.98
2018-09-28T10:37:40.454Z,21.17
2018-09-28T10:38:48.534Z,21.13
2018-09-28T10:39:56.593Z,21.21
2018-09-28T10:41:04.693Z,21.24
2018-09-28T10:42:12.722Z,21.22
2018-09-28T10:43:20.821Z,21.21
2018-09-28T10:44:29.089Z,21.19
2018-09-28T10:45:37.155Z,21.24
2018-09-28T10:46:45.358Z,21.24
2018-09-28T10:47:53.334Z,21.24
2018-09-28T10:49:02.373Z,21.16
2018-09-28T10:50:10.450Z,21.13
2018-09-28T10:51:21.259Z,21.16
2018-09-28T10:52:29.322Z,21.21
2018-09-28T10:53:37.254Z,21.24
2018-09-28T10:54:45.336Z,21.28
2018-09-28T10:55:53.407Z,21.28
2018-09-28T10:57:01.484Z,21.37
2018-09-28T10:58:09.597Z,21.50
2018-09-28T10:59:17.638Z,21.64
2018-09-28T11:00:25.717Z,21.82
2018-09-28T11:01:33.785Z,21.92
2018-09-28T11:02:41.836Z,21.92
2018-09-28T11:03:50.025Z,22.00
2018-09-28T11:04:57.985Z,21.90
2018-09-28T11:06:06.036Z,21.94
2018-09-28T11:07:14.122Z,21.94
2018-09-28T11:08:22.257Z,22.07
2018-09-28T11:09:30.291Z,22.10
2018-09-28T11:10:38.407Z,22.10
2018-09-28T11:11:46.408Z,22.21
2018-09-28T11:12:54.502Z,22.25
2018-09-28T11:14:02.548Z,22.46
2018-09-28T11:15:10.685Z,22.43
2018-09-28T11:16:18.693Z,22.49
2018-09-28T11:17:26.765Z,22.61
2018-09-28T11:18:34.848Z,22.62
2018-09-28T11:19:42.893Z,22.64
2018-09-28T11:20:51.014Z,22.68
2018-09-28T11:21:59.056Z,22.62
2018-09-28T11:23:07.125Z,22.73
2018-09-28T11:24:15.186Z,22.68
2018-09-28T11:25:23.256Z,22.65
2018-09-28T11:26:31.473Z,22.64
2018-09-28T11:27:39.509Z,22.68
2018-09-28T11:28:47.485Z,22.77
2018-09-28T11:29:55.564Z,22.79
2018-09-28T11:31:03.633Z,22.91
2018-09-28T11:32:11.725Z,23.05
2018-09-28T11:33:19.825Z,23.10
2018-09-28T11:34:27.860Z,23.20
2018-09-28T11:35:35.934Z,23.39
2018-09-28T11:36:43.999Z,23.38
2018-09-28T11:37:52.118Z,23.47
2018-09-28T11:39:00.134Z,23.51
2018-09-28T11:40:08.199Z,23.40
2018-09-28T11:41:16.293Z,23.51
2018-09-28T11:42:24.367Z,23.58
2018-09-28T11:43:32.429Z,23.70
2018-09-28T11:44:40.510Z,23.70
2018-09-28T11:45:48.625Z,23.63
2018-09-28T11:46:56.669Z,23.48
2018-09-28T11:48:04.703Z,23.33
2018-09-28T11:49:12.857Z,23.25
2018-09-28T11:50:20.873Z,23.12
2018-09-28T11:51:28.946Z,22.94
2018-09-28T11:52:37.046Z,22.82
2018-09-28T11:53:45.090Z,22.75
2018-09-28T11:54:53.154Z,22.73
2018-09-28T11:56:01.239Z,22.82
2018-09-28T11:57:09.316Z,22.80
2018-09-28T11:58:17.369Z,22.83
2018-09-28T11:59:25.444Z,23.02
2018-09-28T12:00:33.510Z,23.01
2018-09-28T12:01:41.595Z,23.04
2018-09-28T12:02:49.798Z,23.12
2018-09-28T12:03:57.753Z,23.10
2018-09-28T12:05:05.905Z,23.07
2018-09-28T12:06:13.958Z,23.04
2018-09-28T12:07:21.950Z,23.07
2018-09-28T12:08:30.041Z,22.90
2018-09-28T12:09:38.179Z,22.80
2018-09-28T12:10:46.192Z,22.75
2018-09-28T12:11:54.241Z,22.65
2018-09-28T12:13:02.335Z,22.55
2018-09-28T12:14:10.390Z,22.65
2018-09-28T12:15:18.508Z,22.54
2018-09-28T12:16:26.553Z,22.64
2018-09-28T12:17:34.633Z,22.62
2018-09-28T12:18:42.710Z,22.54
2018-09-28T12:19:50.760Z,22.55
2018-09-28T12:20:58.842Z,22.54
2018-09-28T12:22:06.905Z,22.51
2018-09-28T12:23:14.967Z,22.45
2018-09-28T12:24:23.193Z,22.42
2018-09-28T12:25:31.138Z,22.43
2018-09-28T12:26:39.195Z,22.47
2018-09-28T12:27:47.378Z,22.40
2018-09-28T12:28:55.340Z,22.40
2018-09-28T12:30:03.417Z,22.51
2018-09-28T12:31:11.493Z,22.42
2018-09-28T12:32:19.566Z,22.51
2018-09-28T12:33:27.703Z,22.62
2018-09-28T12:34:35.701Z,22.61
2018-09-28T12:35:43.768Z,22.64
2018-09-28T12:36:51.948Z,22.68
2018-09-28T12:37:59.916Z,22.64
2018-09-28T12:39:08.057Z,22.62
2018-09-28T12:40:16.076Z,22.64
2018-09-28T12:41:24.161Z,22.64
2018-09-28T12:42:32.226Z,22.64
2018-09-28T12:43:40.286Z,22.64
2018-09-28T12:44:48.467Z,22.67
2018-09-28T12:45:56.440Z,22.62
2018-09-28T12:47:04.492Z,22.64
2018-09-28T12:48:12.619Z,22.67
2018-09-28T12:49:20.652Z,22.61
2018-09-28T12:50:28.717Z,22.55
2018-09-28T12:51:36.806Z,22.45
2018-09-28T12:52:44.851Z,22.43
2018-09-28T12:53:52.936Z,22.39
2018-09-28T12:55:01.020Z,22.31
2018-09-28T12:56:09.119Z,22.28
2018-09-28T12:57:17.162Z,22.22
2018-09-28T12:58:25.212Z,22.15
2018-09-28T12:59:33.302Z,22.14
2018-09-28T13:00:41.378Z,22.14
2018-09-28T13:01:49.424Z,22.17
2018-09-28T13:02:57.510Z,22.20
2018-09-28T13:04:05.592Z,22.25
2018-09-28T13:05:13.647Z,22.31
2018-09-28T13:06:21.773Z,22.43
2018-09-28T13:07:29.789Z,22.57
2018-09-28T13:08:37.894Z,22.68
2018-09-28T13:09:45.943Z,22.77
2018-09-28T13:10:54.000Z,22.77
2018-09-28T13:12:02.090Z,22.79
2018-09-28T13:13:10.162Z,22.94
2018-09-28T13:14:18.232Z,22.85
2018-09-28T13:15:26.297Z,22.72
2018-09-28T13:16:34.364Z,22.67
2018-09-28T13:17:42.462Z,22.61
2018-09-28T13:18:50.588Z,22.54
2018-09-28T13:19:58.584Z,22.55
2018-09-28T13:21:06.671Z,22.42
2018-09-28T13:22:14.740Z,22.27
2018-09-28T13:23:22.812Z,22.24
2018-09-28T13:24:30.910Z,22.25
2018-09-28T13:25:38.948Z,22.33
2018-09-28T13:26:47.056Z,22.28
2018-09-28T13:27:55.078Z,22.21
2018-09-28T13:29:03.221Z,22.21
2018-09-28T13:30:11.314Z,22.36
2018-09-28T13:31:19.298Z,22.45
2018-09-28T13:32:27.505Z,22.47
2018-09-28T13:33:35.437Z,22.45
2018-09-28T13:34:43.510Z,22.54
2018-09-28T13:35:51.588Z,22.54
2018-09-28T13:36:59.673Z,22.51
2018-09-28T13:38:07.808Z,22.55
2018-09-28T13:39:15.807Z,22.55
2018-09-28T13:40:23.873Z,22.55
2018-09-28T13:41:31.952Z,22.42
2018-09-28T13:42:40.047Z,22.42
2018-09-28T13:43:48.098Z,22.43
2018-09-28T13:44:56.242Z,22.33
2018-09-28T13:46:04.280Z,22.25
2018-09-28T13:47:12.307Z,22.20
2018-09-28T13:48:20.399Z,22.15
2018-09-28T13:49:28.452Z,22.20
2018-09-28T13:50:36.587Z,22.15
2018-09-28T13:51:44.598Z,22.18
2018-09-28T13:52:52.709Z,22.27
2018-09-28T13:54:00.749Z,22.21
2018-09-28T13:55:08.810Z,22.24
2018-09-28T13:56:16.903Z,22.30
2018-09-28T13:57:24.997Z,22.28
2018-09-28T13:58:33.084Z,22.33
2018-09-28T13:59:41.081Z,22.28
2018-09-28T14:00:49.311Z,22.28
2018-09-28T14:01:57.249Z,22.31
2018-09-28T14:03:05.304Z,22.24
2018-09-28T14:04:13.395Z,22.22
2018-09-28T14:05:21.488Z,22.22
2018-09-28T14:06:29.661Z,22.12
2018-09-28T14:07:37.625Z,22.14
2018-09-28T14:08:45.757Z,22.10
2018-09-28T14:09:53.756Z,22.18
2018-09-28T14:11:01.805Z,22.17
2018-09-28T14:12:09.922Z,22.10
2018-09-28T14:13:17.944Z,22.05
2018-09-28T14:14:26.051Z,22.00
2018-09-28T14:15:34.108Z,21.94
2018-09-28T14:16:42.258Z,21.88
2018-09-28T14:17:50.256Z,21.75
2018-09-28T14:18:58.316Z,21.77
2018-09-28T14:20:06.390Z,21.74
2018-09-28T14:21:14.455Z,21.64
2018-09-28T14:22:22.577Z,21.61
2018-09-28T14:23:30.613Z,21.58
2018-09-28T14:24:38.728Z,21.54
2018-09-28T14:25:46.744Z,21.52
2018-09-28T14:26:54.813Z,21.52
2018-09-28T14:28:02.929Z,21.44
2018-09-28T14:29:10.956Z,21.38
2018-09-28T14:30:19.093Z,21.37
2018-09-28T14:31:27.107Z,21.43
2018-09-28T14:32:35.179Z,21.37
2018-09-28T14:33:43.310Z,21.42
2018-09-28T14:34:51.426Z,21.35
2018-09-28T14:35:59.368Z,21.29
2018-09-28T14:37:07.468Z,21.28
2018-09-28T14:38:15.529Z,21.25
2018-09-28T14:39:23.607Z,21.19
2018-09-28T14:40:31.671Z,21.03
2018-09-28T14:41:39.753Z,21.06
2018-09-28T14:42:47.895Z,21.01
2018-09-28T14:43:55.894Z,20.91
2018-09-28T14:45:03.957Z,20.94
2018-09-28T14:46:12.035Z,20.92
2018-09-28T14:47:20.100Z,20.80
2018-09-28T14:48:28.182Z,20.76
2018-09-28T14:49:36.242Z,20.67